Mendota Heights, Minnesota
Current Conditions -  °F | °C
As of 1:53 AM on Friday 24 Oct 2014 (Local Time) from KMSP Reporting Station
Broken Clouds Broken Clouds  
Wind Chill: 45°   Ceiling: 24000
Heat Index: 48°   Visibility: 10mi
Dew Point: 46°   Wind: 7mph
Humidity: 93%   Direction: 110°ESE
Pressure: 29.96"   Gusts: NA
Location:  44.8725°N, 93.1463°W
Report Text: KMSP 240653Z 11006KT 10SM BKN240 09/08 A2996 RMK AO2 SLP147 T00890078
Loading
Personal Weather Stations






























Interactive Weather Map
Tropical Storm Tracking
New forecast layout! Learn more

10-Day Weather Forecast

Advertisements
Track Severe Weather on mobile